createdAt,value
2023-04-30T00:00:49.856Z,92.30
2023-04-30T00:03:50.912Z,92.25
2023-04-30T00:06:18.976Z,91.79
2023-04-30T00:08:47.053Z,92.50
2023-04-30T00:11:14.948Z,92.37
2023-04-30T00:13:43.568Z,92.25
2023-04-30T00:16:11.495Z,92.43
2023-04-30T00:18:39.441Z,92.33
2023-04-30T00:21:07.387Z,92.41
2023-04-30T00:23:35.497Z,92.78
2023-04-30T00:26:03.848Z,92.61
2023-04-30T00:28:31.809Z,92.61
2023-04-30T00:30:59.804Z,92.86
2023-04-30T00:33:27.788Z,92.59
2023-04-30T00:35:55.720Z,93.27
2023-04-30T00:38:24.167Z,93.39
2023-04-30T00:40:53.312Z,93.67
2023-04-30T00:43:21.293Z,93.29
2023-04-30T00:45:49.397Z,93.66
2023-04-30T00:48:18.387Z,94.24
2023-04-30T00:50:46.419Z,94.74
2023-04-30T00:53:14.481Z,94.84
2023-04-30T00:55:44.257Z,94.57
2023-04-30T00:58:12.835Z,94.81
2023-04-30T01:00:47.067Z,95.23
2023-04-30T01:03:15.269Z,94.54
2023-04-30T01:05:43.320Z,94.82
2023-04-30T01:08:11.844Z,95.03
2023-04-30T01:10:52.962Z,95.43
2023-04-30T01:13:39.871Z,95.33
2023-04-30T01:16:30.468Z,95.18
2023-04-30T01:19:37.568Z,95.07
2023-04-30T01:22:12.104Z,95.57
2023-04-30T01:25:14.517Z,95.32
2023-04-30T01:28:14.706Z,95.08
2023-04-30T01:30:46.586Z,95.14
2023-04-30T01:33:14.962Z,95.45
2023-04-30T01:35:43.598Z,95.60
2023-04-30T01:38:33.085Z,95.65
2023-04-30T01:41:14.110Z,95.75
2023-04-30T01:43:52.788Z,96.26
2023-04-30T01:46:30.851Z,96.92
2023-04-30T01:49:30.408Z,96.76
2023-04-30T01:52:17.898Z,96.74
2023-04-30T01:54:51.424Z,97.02
2023-04-30T01:57:47.769Z,97.37
2023-04-30T02:00:18.041Z,97.29
2023-04-30T02:02:46.312Z,97.47
2023-04-30T02:05:14.430Z,97.75
2023-04-30T02:07:45.582Z,98.03
2023-04-30T02:10:14.205Z,97.86
2023-04-30T02:12:42.683Z,98.28
2023-04-30T02:15:11.235Z,98.61
2023-04-30T02:17:42.039Z,98.59
2023-04-30T02:20:10.897Z,98.46
2023-04-30T02:22:39.004Z,98.53
2023-04-30T02:25:07.937Z,98.66
2023-04-30T02:27:36.080Z,98.79
2023-04-30T02:30:04.776Z,98.70
2023-04-30T02:32:32.785Z,99.01
2023-04-30T02:35:00.915Z,98.62
2023-04-30T02:37:29.000Z,98.85
2023-04-30T02:39:57.152Z,98.80
2023-04-30T02:42:26.600Z,99.05
2023-04-30T02:44:54.534Z,98.91
2023-04-30T02:47:22.593Z,98.74
2023-04-30T02:49:50.907Z,98.55
2023-04-30T02:52:18.837Z,98.51
2023-04-30T02:54:46.856Z,98.62
2023-04-30T02:57:14.772Z,98.74
2023-04-30T02:59:45.948Z,98.65
2023-04-30T03:02:14.253Z,98.53
2023-04-30T03:04:42.834Z,98.91
2023-04-30T03:07:11.538Z,98.98
2023-04-30T03:09:39.530Z,98.99
2023-04-30T03:12:07.614Z,99.10
2023-04-30T03:14:35.644Z,98.97
2023-04-30T03:17:03.620Z,98.98
2023-04-30T03:19:32.006Z,99.33
2023-04-30T03:22:00.030Z,98.92
2023-04-30T03:24:28.218Z,99.03
2023-04-30T03:26:56.535Z,99.03
2023-04-30T03:29:24.664Z,99.03
2023-04-30T03:31:52.828Z,99.13
2023-04-30T03:34:21.116Z,99.07
2023-04-30T03:36:49.188Z,99.21
2023-04-30T03:39:17.116Z,98.96
2023-04-30T03:41:45.139Z,99.10
2023-04-30T03:44:16.038Z,99.13
2023-04-30T03:46:44.758Z,99.05
2023-04-30T03:49:12.900Z,98.90
2023-04-30T03:51:42.139Z,98.80
2023-04-30T03:54:10.391Z,98.61
2023-04-30T03:56:38.780Z,98.95
2023-04-30T03:59:07.309Z,99.36
2023-04-30T04:01:36.202Z,99.28
2023-04-30T04:04:04.346Z,99.26
2023-04-30T04:06:32.794Z,99.47
2023-04-30T04:09:00.790Z,99.30
2023-04-30T04:11:29.250Z,99.36
2023-04-30T04:13:57.640Z,99.12
2023-04-30T04:16:26.115Z,99.12
2023-04-30T04:18:54.114Z,99.01
2023-04-30T04:21:22.123Z,99.01
2023-04-30T04:23:50.402Z,99.10
2023-04-30T04:26:21.605Z,99.23
2023-04-30T04:28:50.206Z,98.97
2023-04-30T04:31:18.470Z,98.84
2023-04-30T04:33:46.959Z,98.92
2023-04-30T04:36:16.336Z,98.56
2023-04-30T04:38:44.532Z,98.84
2023-04-30T04:41:12.981Z,98.78
2023-04-30T04:43:41.261Z,98.81
2023-04-30T04:46:10.651Z,98.66
2023-04-30T04:48:40.381Z,98.53
2023-04-30T04:51:10.258Z,98.72
2023-04-30T04:53:39.089Z,98.54
2023-04-30T04:56:07.384Z,98.89
2023-04-30T04:58:36.499Z,98.78
2023-04-30T05:01:06.069Z,98.64
2023-04-30T05:03:37.121Z,98.73
2023-04-30T05:06:05.855Z,98.43
2023-04-30T05:08:33.878Z,98.21
2023-04-30T05:11:01.916Z,98.14
2023-04-30T05:13:30.205Z,97.91
2023-04-30T05:15:58.265Z,97.74
2023-04-30T05:18:26.318Z,97.66
2023-04-30T05:20:54.244Z,97.66
2023-04-30T05:23:22.137Z,97.52
2023-04-30T05:25:53.599Z,97.41
2023-04-30T05:28:21.479Z,97.32
2023-04-30T05:30:49.405Z,96.97
2023-04-30T05:33:17.385Z,96.87
2023-04-30T05:35:45.549Z,96.54
2023-04-30T05:38:13.454Z,96.10
2023-04-30T05:40:41.377Z,96.02
2023-04-30T05:43:09.366Z,96.01
2023-04-30T05:45:37.534Z,96.07
2023-04-30T05:48:05.636Z,96.43
2023-04-30T05:50:34.283Z,96.34
2023-04-30T05:53:02.229Z,96.40
2023-04-30T05:55:31.074Z,96.38
2023-04-30T05:57:58.990Z,96.21
2023-04-30T06:00:26.991Z,96.11
2023-04-30T06:02:54.952Z,95.93
2023-04-30T06:05:22.954Z,95.99
2023-04-30T06:07:50.962Z,96.06
2023-04-30T06:10:18.969Z,95.98
2023-04-30T06:12:46.926Z,96.07
2023-04-30T06:15:14.816Z,96.09
2023-04-30T06:17:42.988Z,95.66
2023-04-30T06:20:11.558Z,95.32
2023-04-30T06:22:41.187Z,95.31
2023-04-30T06:25:09.624Z,95.03
2023-04-30T06:27:37.707Z,95.21
2023-04-30T06:30:06.860Z,94.57
2023-04-30T06:32:35.040Z,94.85
2023-04-30T06:35:03.066Z,95.08
2023-04-30T06:37:35.987Z,94.66
2023-04-30T06:40:07.766Z,94.62
2023-04-30T06:42:36.071Z,94.32
2023-04-30T06:45:06.648Z,94.04
2023-04-30T06:47:38.185Z,94.02
2023-04-30T06:50:06.595Z,93.97
2023-04-30T06:52:34.709Z,93.30
2023-04-30T06:55:02.588Z,93.29
2023-04-30T06:57:31.302Z,93.39
2023-04-30T06:59:59.270Z,93.35
2023-04-30T07:02:27.815Z,92.82
2023-04-30T07:04:56.017Z,91.86
2023-04-30T07:07:24.189Z,92.39
2023-04-30T07:09:53.659Z,92.55
2023-04-30T07:12:22.549Z,92.40
2023-04-30T07:14:50.732Z,91.99
2023-04-30T07:17:18.789Z,92.56
2023-04-30T07:19:47.329Z,92.32
2023-04-30T07:22:15.404Z,92.42
2023-04-30T07:24:43.337Z,92.40
2023-04-30T07:27:11.275Z,91.99
2023-04-30T07:29:39.248Z,91.22
2023-04-30T07:32:07.181Z,91.49
2023-04-30T07:34:35.106Z,91.12
2023-04-30T07:37:03.296Z,89.86
2023-04-30T07:39:31.345Z,89.68
2023-04-30T07:41:59.331Z,90.02
2023-04-30T07:44:27.303Z,90.38
2023-04-30T07:46:55.356Z,89.19
2023-04-30T07:49:23.457Z,89.06
2023-04-30T07:51:52.101Z,88.08
2023-04-30T07:54:23.694Z,87.33
2023-04-30T07:56:51.739Z,87.22
2023-04-30T07:59:21.396Z,86.54
2023-04-30T08:01:49.350Z,84.79
2023-04-30T08:04:17.436Z,83.16
2023-04-30T08:06:45.338Z,84.09
2023-04-30T08:09:13.316Z,84.07
2023-04-30T08:11:41.789Z,82.39
2023-04-30T08:14:09.788Z,81.47
2023-04-30T08:16:37.773Z,81.84
2023-04-30T08:19:05.874Z,82.67
2023-04-30T08:21:33.922Z,82.86
2023-04-30T08:24:02.260Z,82.35
2023-04-30T08:26:30.252Z,82.28
2023-04-30T08:28:58.157Z,81.11
2023-04-30T08:31:26.166Z,80.53
2023-04-30T08:33:54.199Z,79.83
2023-04-30T08:36:22.143Z,79.48
2023-04-30T08:38:50.018Z,77.44
2023-04-30T08:41:20.195Z,77.61
2023-04-30T08:43:51.221Z,77.42
2023-04-30T08:46:20.867Z,76.93
2023-04-30T08:48:48.973Z,77.71
2023-04-30T08:51:16.889Z,76.63
2023-04-30T08:53:45.880Z,76.84
2023-04-30T08:56:13.803Z,76.36
2023-04-30T08:58:41.864Z,76.34
2023-04-30T09:01:10.494Z,75.60
2023-04-30T09:03:38.646Z,76.73
2023-04-30T09:06:06.886Z,76.10
2023-04-30T09:08:51.243Z,76.35
2023-04-30T09:11:23.112Z,76.94
2023-04-30T09:13:53.295Z,76.36
2023-04-30T09:16:22.967Z,73.10
2023-04-30T09:18:51.628Z,73.36
2023-04-30T09:21:33.979Z,73.26
2023-04-30T09:24:04.730Z,73.09
2023-04-30T09:26:35.126Z,72.40
2023-04-30T09:29:08.205Z,72.20
2023-04-30T09:31:42.187Z,71.47
2023-04-30T09:34:10.900Z,71.41
2023-04-30T09:36:52.712Z,71.17
2023-04-30T09:39:21.174Z,70.61
2023-04-30T09:41:52.168Z,71.71
2023-04-30T09:44:30.703Z,69.07
2023-04-30T09:46:59.444Z,68.83
2023-04-30T09:49:27.909Z,69.05
2023-04-30T09:51:56.945Z,67.42
2023-04-30T09:54:30.088Z,66.98
2023-04-30T09:57:02.425Z,67.98
2023-04-30T09:59:33.091Z,67.75
2023-04-30T10:02:03.358Z,66.91
2023-04-30T10:04:34.707Z,67.05
2023-04-30T10:07:06.932Z,65.09
2023-04-30T10:09:59.469Z,64.14
2023-04-30T10:12:37.974Z,64.80
2023-04-30T10:15:18.223Z,63.67
2023-04-30T10:17:54.690Z,64.70
2023-04-30T10:20:26.411Z,64.86
2023-04-30T10:22:54.760Z,62.89
2023-04-30T10:25:23.608Z,62.06
2023-04-30T10:27:51.890Z,61.05
2023-04-30T10:30:22.644Z,62.19
2023-04-30T10:33:09.712Z,62.17
2023-04-30T10:35:53.548Z,62.55
2023-04-30T10:38:25.034Z,59.92
2023-04-30T10:40:58.247Z,59.74
2023-04-30T10:43:26.620Z,59.09
2023-04-30T10:45:54.589Z,58.75
2023-04-30T10:48:27.234Z,59.56
2023-04-30T10:50:57.388Z,59.44
2023-04-30T10:53:27.991Z,60.33
2023-04-30T10:56:00.914Z,59.80
2023-04-30T10:58:34.638Z,60.10
2023-04-30T11:01:02.622Z,60.82
2023-04-30T11:03:32.812Z,60.55
2023-04-30T11:06:04.025Z,60.52
2023-04-30T11:08:33.610Z,60.03
2023-04-30T11:11:05.476Z,59.39
2023-04-30T11:13:47.947Z,59.72
2023-04-30T11:16:16.775Z,58.70
2023-04-30T11:18:46.047Z,58.24
2023-04-30T11:21:14.261Z,57.02
2023-04-30T11:23:43.603Z,57.20
2023-04-30T11:26:11.816Z,57.72
2023-04-30T11:28:55.625Z,57.72
2023-04-30T11:31:33.829Z,57.60
2023-04-30T11:34:03.659Z,56.64
2023-04-30T11:36:33.918Z,56.02
2023-04-30T11:39:06.242Z,54.67
2023-04-30T11:41:41.271Z,54.92
2023-04-30T11:44:28.201Z,55.78
2023-04-30T11:46:56.299Z,55.03
2023-04-30T11:49:24.322Z,54.73
2023-04-30T11:51:53.205Z,55.41
2023-04-30T11:54:22.305Z,55.85
2023-04-30T11:56:50.868Z,55.51
2023-04-30T11:59:19.216Z,55.69
2023-04-30T12:01:47.165Z,55.23
2023-04-30T12:04:15.392Z,54.09
2023-04-30T12:06:43.751Z,53.83
2023-04-30T12:09:12.154Z,53.07
2023-04-30T12:11:40.110Z,54.02
2023-04-30T12:14:12.591Z,52.40
2023-04-30T12:16:46.141Z,53.05
2023-04-30T12:19:14.288Z,53.49
2023-04-30T12:21:51.974Z,53.49
2023-04-30T12:24:19.925Z,53.60
2023-04-30T12:26:48.211Z,53.00
2023-04-30T12:29:17.710Z,52.74
2023-04-30T12:31:49.243Z,53.39
2023-04-30T12:34:18.658Z,53.81
2023-04-30T12:36:46.592Z,53.81
2023-04-30T12:39:16.421Z,52.58
2023-04-30T12:41:49.831Z,52.35
2023-04-30T12:44:18.820Z,51.73
2023-04-30T12:46:49.206Z,51.98
2023-04-30T12:49:25.064Z,52.64
2023-04-30T12:51:59.297Z,52.56
2023-04-30T12:54:32.669Z,52.29
2023-04-30T12:57:12.037Z,52.49
2023-04-30T12:59:57.228Z,52.23
2023-04-30T13:02:33.184Z,52.01
2023-04-30T13:05:01.206Z,51.98
2023-04-30T13:07:38.300Z,52.67
2023-04-30T13:10:07.368Z,52.53
2023-04-30T13:12:35.380Z,51.99
2023-04-30T13:15:03.987Z,51.29
2023-04-30T13:17:31.945Z,51.79
2023-04-30T13:19:59.935Z,52.13
2023-04-30T13:22:29.752Z,52.39
2023-04-30T13:24:57.884Z,51.46
2023-04-30T13:27:25.982Z,51.86
2023-04-30T13:29:54.243Z,52.21
2023-04-30T13:32:22.429Z,51.90
2023-04-30T13:34:52.405Z,51.01
2023-04-30T13:37:21.094Z,50.27
2023-04-30T13:39:49.181Z,51.17
2023-04-30T13:42:17.115Z,50.26
2023-04-30T13:44:45.670Z,50.82
2023-04-30T13:47:13.580Z,50.61
2023-04-30T13:49:41.848Z,50.92
2023-04-30T13:52:09.811Z,49.95
2023-04-30T13:54:38.602Z,49.84
2023-04-30T13:57:07.607Z,50.33
2023-04-30T14:06:25.898Z,51.12
2023-04-30T14:08:53.896Z,51.29
2023-04-30T14:11:22.053Z,50.32
2023-04-30T14:13:50.012Z,50.19
2023-04-30T14:16:19.639Z,50.47
2023-04-30T14:18:47.609Z,49.11
2023-04-30T14:21:15.603Z,49.70
2023-04-30T14:23:46.572Z,50.01
2023-04-30T14:26:15.134Z,50.36
2023-04-30T14:28:43.070Z,50.52
2023-04-30T14:31:11.084Z,49.52
2023-04-30T14:33:39.281Z,49.73
2023-04-30T14:36:07.946Z,49.30
2023-04-30T14:38:35.882Z,49.35
2023-04-30T14:41:03.948Z,49.19
2023-04-30T14:43:31.879Z,49.65
2023-04-30T14:45:59.935Z,49.59
2023-04-30T14:48:27.893Z,49.36
2023-04-30T14:50:55.953Z,49.56
2023-04-30T14:53:23.843Z,49.02
2023-04-30T14:55:52.169Z,48.39
2023-04-30T14:58:21.045Z,48.47
2023-04-30T15:00:49.098Z,48.71
2023-04-30T15:03:17.213Z,48.62
2023-04-30T15:05:45.273Z,48.76
2023-04-30T15:08:13.241Z,49.12
2023-04-30T15:10:41.176Z,49.30
2023-04-30T15:13:09.933Z,49.34
2023-04-30T15:15:38.031Z,48.34
2023-04-30T15:18:07.308Z,48.87
2023-04-30T15:20:35.390Z,48.82
2023-04-30T15:23:03.946Z,48.80
2023-04-30T15:25:32.426Z,48.86
2023-04-30T15:28:00.805Z,49.00
2023-04-30T15:30:28.790Z,49.10
2023-04-30T15:32:57.007Z,48.66
2023-04-30T15:35:26.593Z,48.81
2023-04-30T15:37:54.775Z,49.14
2023-04-30T15:40:23.611Z,49.02
2023-04-30T15:42:51.702Z,49.50
2023-04-30T15:45:20.808Z,49.62
2023-04-30T15:47:48.891Z,49.23
2023-04-30T15:50:17.123Z,48.83
2023-04-30T15:52:45.058Z,47.85
2023-04-30T15:55:13.280Z,47.85
2023-04-30T15:57:41.246Z,48.38
2023-04-30T16:00:10.944Z,48.41
2023-04-30T16:02:41.864Z,48.09
2023-04-30T16:05:10.269Z,48.16
2023-04-30T16:07:38.532Z,47.57
2023-04-30T16:10:07.149Z,47.92
2023-04-30T16:12:36.329Z,47.56
2023-04-30T16:15:06.132Z,47.47
2023-04-30T16:17:34.143Z,47.32
2023-04-30T16:20:02.272Z,46.83
2023-04-30T16:22:30.358Z,47.12
2023-04-30T16:24:58.699Z,46.43
2023-04-30T16:27:26.614Z,46.48
2023-04-30T16:29:55.351Z,46.89
2023-04-30T16:32:23.657Z,46.95
2023-04-30T16:34:52.352Z,46.62
2023-04-30T16:37:20.377Z,46.86
2023-04-30T16:39:48.305Z,46.76
2023-04-30T16:42:16.237Z,46.76
2023-04-30T16:44:44.186Z,46.18
2023-04-30T16:47:12.224Z,46.89
2023-04-30T16:49:40.738Z,46.51
2023-04-30T16:52:08.746Z,46.39
2023-04-30T16:54:36.821Z,46.54
2023-04-30T16:57:05.693Z,46.50
2023-04-30T16:59:33.684Z,46.13
2023-04-30T17:02:02.072Z,45.93
2023-04-30T17:04:30.144Z,45.34
2023-04-30T17:06:59.226Z,46.14
2023-04-30T17:09:27.295Z,45.97
2023-04-30T17:11:55.539Z,45.46
2023-04-30T17:14:24.147Z,45.34
2023-04-30T17:16:52.142Z,45.68
2023-04-30T17:19:20.126Z,45.65
2023-04-30T17:21:48.064Z,45.29
2023-04-30T17:24:16.138Z,45.41
2023-04-30T17:26:44.094Z,45.03
2023-04-30T17:29:12.880Z,45.01
2023-04-30T17:31:40.898Z,44.92
2023-04-30T17:34:08.951Z,45.17
2023-04-30T17:36:37.147Z,45.27
2023-04-30T17:39:05.881Z,45.43
2023-04-30T17:41:34.225Z,45.63
2023-04-30T17:44:02.189Z,45.43
2023-04-30T17:46:30.261Z,45.50
2023-04-30T17:49:01.674Z,45.53
2023-04-30T17:51:31.566Z,45.48
2023-04-30T17:53:59.862Z,45.63
2023-04-30T17:56:31.471Z,45.88
2023-04-30T17:59:00.166Z,45.84
2023-04-30T18:01:28.249Z,46.22
2023-04-30T18:03:56.290Z,45.77
2023-04-30T18:06:24.616Z,45.84
2023-04-30T18:08:53.920Z,45.75
2023-04-30T18:11:21.964Z,45.81
2023-04-30T18:13:49.969Z,45.89
2023-04-30T18:16:17.957Z,45.89
2023-04-30T18:18:46.527Z,46.17
2023-04-30T18:21:14.858Z,46.18
2023-04-30T18:23:42.821Z,46.36
2023-04-30T18:26:10.774Z,46.26
2023-04-30T18:28:38.781Z,46.48
2023-04-30T18:31:06.743Z,46.31
2023-04-30T18:33:34.923Z,46.43
2023-04-30T18:36:06.047Z,46.55
2023-04-30T18:38:34.705Z,46.74
2023-04-30T18:41:02.720Z,46.66
2023-04-30T18:43:30.903Z,46.86
2023-04-30T18:46:00.884Z,46.85
2023-04-30T18:48:28.810Z,46.87
2023-04-30T18:50:57.927Z,46.95
2023-04-30T18:53:26.145Z,46.83
2023-04-30T18:55:56.206Z,46.87
2023-04-30T18:58:24.297Z,47.00
2023-04-30T19:00:52.768Z,47.03
2023-04-30T19:03:20.912Z,47.20
2023-04-30T19:05:54.465Z,47.09
2023-04-30T19:08:22.540Z,47.22
2023-04-30T19:10:52.434Z,47.45
2023-04-30T19:13:20.438Z,47.59
2023-04-30T19:15:48.947Z,47.49
2023-04-30T19:18:17.844Z,47.68
2023-04-30T19:21:00.465Z,47.86
2023-04-30T19:23:30.788Z,47.80
2023-04-30T19:25:59.773Z,47.82
2023-04-30T19:28:28.446Z,47.94
2023-04-30T19:30:56.557Z,47.87
2023-04-30T19:33:25.613Z,48.04
2023-04-30T19:35:54.803Z,47.98
2023-04-30T19:38:23.841Z,48.00
2023-04-30T19:40:54.299Z,48.12
2023-04-30T19:43:23.422Z,48.22
2023-04-30T19:45:56.938Z,48.31
2023-04-30T19:48:26.872Z,48.30
2023-04-30T19:50:55.297Z,48.39
2023-04-30T19:53:26.308Z,48.51
2023-04-30T19:55:54.332Z,48.58
2023-04-30T19:58:22.287Z,48.49
2023-04-30T20:00:53.641Z,48.62
2023-04-30T20:03:22.743Z,48.77
2023-04-30T20:05:50.890Z,48.59
2023-04-30T20:08:18.991Z,48.84
2023-04-30T20:10:48.027Z,48.86
2023-04-30T20:13:17.339Z,49.05
2023-04-30T20:15:45.487Z,48.89
2023-04-30T20:18:13.606Z,49.03
2023-04-30T20:20:52.544Z,49.18
2023-04-30T20:23:20.718Z,49.39
2023-04-30T20:25:50.151Z,49.50
2023-04-30T20:28:18.425Z,49.62
2023-04-30T20:30:48.087Z,49.59
2023-04-30T20:33:16.464Z,49.86
2023-04-30T20:35:48.949Z,49.92
2023-04-30T20:38:19.951Z,50.00
2023-04-30T20:40:48.620Z,50.21
2023-04-30T20:43:18.146Z,50.30
2023-04-30T20:45:46.563Z,50.55
2023-04-30T20:48:14.589Z,50.50
2023-04-30T20:50:42.699Z,50.51
2023-04-30T20:53:11.854Z,50.52
2023-04-30T20:55:39.841Z,50.61
2023-04-30T20:58:09.216Z,50.62
2023-04-30T21:00:37.307Z,50.80
2023-04-30T21:03:06.073Z,50.92
2023-04-30T21:05:34.430Z,50.96
2023-04-30T21:08:02.484Z,51.03
2023-04-30T21:10:36.189Z,50.98
2023-04-30T21:13:05.964Z,51.13
2023-04-30T21:15:36.377Z,50.97
2023-04-30T21:18:05.061Z,51.05
2023-04-30T21:20:36.325Z,50.96
2023-04-30T21:23:04.366Z,50.96
2023-04-30T21:25:32.485Z,50.83
2023-04-30T21:28:03.096Z,50.89
2023-04-30T21:30:31.524Z,50.70
2023-04-30T21:32:59.556Z,51.07
2023-04-30T21:35:30.445Z,50.69
2023-04-30T21:37:58.517Z,50.88
2023-04-30T21:40:26.608Z,50.82
2023-04-30T21:42:54.801Z,50.86
2023-04-30T21:45:22.940Z,50.96
2023-04-30T21:47:51.121Z,50.87
2023-04-30T21:50:19.158Z,50.86
2023-04-30T21:52:47.075Z,50.93
2023-04-30T21:55:15.058Z,50.92
2023-04-30T21:57:43.109Z,50.94
2023-04-30T22:00:14.461Z,51.04
2023-04-30T22:02:49.745Z,50.99
2023-04-30T22:05:19.645Z,51.02
2023-04-30T22:07:48.127Z,50.97
2023-04-30T22:10:16.209Z,51.03
2023-04-30T22:12:47.344Z,51.05
2023-04-30T22:15:15.790Z,50.99
2023-04-30T22:17:43.843Z,51.10
2023-04-30T22:20:12.241Z,51.08
2023-04-30T22:22:40.221Z,51.19
2023-04-30T22:25:10.095Z,51.21
2023-04-30T22:27:38.244Z,51.27
2023-04-30T22:30:07.196Z,51.25
2023-04-30T22:32:35.239Z,51.18
2023-04-30T22:35:03.604Z,51.29
2023-04-30T22:37:31.628Z,51.24
2023-04-30T22:39:59.623Z,51.33
2023-04-30T22:42:28.820Z,51.23
2023-04-30T22:44:57.577Z,51.42
2023-04-30T22:47:27.465Z,51.46
2023-04-30T22:49:57.708Z,51.64
2023-04-30T22:52:26.814Z,51.76
2023-04-30T22:54:55.646Z,52.02
2023-04-30T22:57:23.914Z,52.15
2023-04-30T22:59:54.188Z,52.10
2023-04-30T23:02:22.956Z,52.20
2023-04-30T23:04:51.594Z,52.20
2023-04-30T23:07:19.606Z,52.32
2023-04-30T23:09:47.612Z,52.33
2023-04-30T23:12:16.135Z,52.34
2023-04-30T23:14:44.064Z,52.41
2023-04-30T23:17:11.985Z,52.28
2023-04-30T23:19:39.999Z,52.21
2023-04-30T23:22:07.966Z,52.26
2023-04-30T23:24:37.580Z,52.27
2023-04-30T23:27:05.683Z,52.23
2023-04-30T23:29:34.988Z,52.19
2023-04-30T23:32:04.645Z,52.13
2023-04-30T23:34:32.741Z,52.28
2023-04-30T23:37:01.023Z,52.26
2023-04-30T23:39:29.208Z,52.27
2023-04-30T23:41:57.499Z,52.23
2023-04-30T23:44:25.512Z,52.42
2023-04-30T23:46:53.976Z,52.35
2023-04-30T23:49:24.642Z,52.34
